VOZ396 YBRM-YPAD
Flight info
| Callsign | VOZ396 |
|---|---|
| Flight time | 3h 25m |
| Altitude | 37000 |
| Route | BRM T11 LIBTU T29 WR J251 WHA H84 MARGO |
| Aircraft | B737/M-SDE2E3FGHIRWXY/LB1 |
Departure
| Time | 2026-04-28 12:52 |
|---|---|
| Airport | Broome International Airport (YBRM) |
Arrival
| Time | 2026-04-28 16:17 |
|---|---|
| Airport | Adelaide International Airport (YPAD) |
| Time | Latitude | Longitude | Altitude | Speed | Heading |
|---|---|---|---|---|---|
| 2026-04-28 12:23 | -17.95223 | 122.23355 | 40 ft | 0 kts | 56° |
| 2026-04-28 12:48 | -17.95239 | 122.23329 | 39 ft | 0 kts | 47° |
| 2026-04-28 12:48 | -17.95237 | 122.23329 | 39 ft | 0 kts | 26° |
| 2026-04-28 12:49 | -17.95231 | 122.23328 | 41 ft | 2 kts | 4° |
| 2026-04-28 12:49 | -17.95196 | 122.23334 | 41 ft | 10 kts | 27° |
| 2026-04-28 12:49 | -17.95132 | 122.23374 | 38 ft | 11 kts | 20° |
| 2026-04-28 12:49 | -17.95065 | 122.23404 | 39 ft | 11 kts | 60° |
| 2026-04-28 12:50 | -17.95078 | 122.23478 | 36 ft | 11 kts | 107° |
| 2026-04-28 12:50 | -17.95099 | 122.23550 | 36 ft | 10 kts | 107° |
| 2026-04-28 12:50 | -17.95119 | 122.23620 | 36 ft | 10 kts | 107° |
| 2026-04-28 12:50 | -17.95125 | 122.23691 | 35 ft | 10 kts | 84° |
| 2026-04-28 12:51 | -17.95120 | 122.23760 | 34 ft | 9 kts | 102° |
| 2026-04-28 12:51 | -17.95150 | 122.23799 | 32 ft | 6 kts | 193° |
| 2026-04-28 12:51 | -17.95154 | 122.23789 | 33 ft | 1 kts | 252° |
| 2026-04-28 12:51 | -17.95155 | 122.23780 | 34 ft | 1 kts | 266° |
| 2026-04-28 12:52 | -17.95153 | 122.23769 | 34 ft | 4 kts | 290° |
| 2026-04-28 12:52 | -17.95067 | 122.23464 | 36 ft | 87 kts | 285° |
| 2026-04-28 12:52 | -17.94842 | 122.22590 | 67 ft | 157 kts | 284° |
| 2026-04-28 12:52 | -17.94612 | 122.21412 | 659 ft | 173 kts | 277° |
| 2026-04-28 12:53 | -17.94336 | 122.20054 | 1211 ft | 203 kts | 284° |
| 2026-04-28 12:53 | -17.93958 | 122.18613 | 2124 ft | 207 kts | 285° |
| 2026-04-28 12:53 | -17.93550 | 122.17101 | 2754 ft | 225 kts | 285° |
| 2026-04-28 12:53 | -17.93133 | 122.15486 | 3386 ft | 237 kts | 282° |
| 2026-04-28 12:54 | -17.93297 | 122.13774 | 4176 ft | 241 kts | 242° |
| 2026-04-28 12:54 | -17.94427 | 122.12528 | 5098 ft | 238 kts | 203° |
| 2026-04-28 12:54 | -17.96031 | 122.12112 | 5795 ft | 247 kts | 176° |
| 2026-04-28 12:54 | -17.97754 | 122.12601 | 6107 ft | 269 kts | 143° |
| 2026-04-28 12:55 | -17.99091 | 122.13969 | 6950 ft | 271 kts | 123° |
| 2026-04-28 12:55 | -18.00084 | 122.15667 | 7880 ft | 274 kts | 117° |
| 2026-04-28 12:55 | -18.00983 | 122.17450 | 8776 ft | 279 kts | 116° |
| 2026-04-28 12:55 | -18.01879 | 122.19281 | 9617 ft | 284 kts | 116° |
| 2026-04-28 12:56 | -18.02792 | 122.21137 | 10459 ft | 290 kts | 116° |
| 2026-04-28 12:56 | -18.03769 | 122.23100 | 10680 ft | 318 kts | 117° |
| 2026-04-28 12:56 | -18.04842 | 122.25233 | 10890 ft | 342 kts | 117° |
| 2026-04-28 12:56 | -18.05990 | 122.27493 | 11367 ft | 356 kts | 118° |
| 2026-04-28 12:57 | -18.07169 | 122.29796 | 12126 ft | 359 kts | 118° |
| 2026-04-28 12:57 | -18.08365 | 122.32120 | 12829 ft | 364 kts | 118° |
| 2026-04-28 12:57 | -18.09581 | 122.34476 | 13490 ft | 370 kts | 118° |
| 2026-04-28 12:57 | -18.10821 | 122.36873 | 14156 ft | 375 kts | 119° |
| 2026-04-28 12:58 | -18.12070 | 122.39290 | 14835 ft | 379 kts | 119° |
| 2026-04-28 12:58 | -18.13336 | 122.41736 | 15471 ft | 383 kts | 119° |
| 2026-04-28 12:58 | -18.14616 | 122.44211 | 16065 ft | 388 kts | 119° |
| 2026-04-28 12:58 | -18.15911 | 122.46716 | 16663 ft | 392 kts | 119° |
| 2026-04-28 12:59 | -18.17207 | 122.49225 | 17259 ft | 396 kts | 119° |
| 2026-04-28 12:59 | -18.18527 | 122.51783 | 17835 ft | 400 kts | 120° |
| 2026-04-28 12:59 | -18.19862 | 122.54368 | 18372 ft | 405 kts | 120° |
| 2026-04-28 12:59 | -18.21209 | 122.56980 | 18899 ft | 409 kts | 120° |
| 2026-04-28 13:00 | -18.22563 | 122.59631 | 19401 ft | 413 kts | 119° |
| 2026-04-28 13:00 | -18.23908 | 122.62321 | 19905 ft | 418 kts | 119° |
| 2026-04-28 13:00 | -18.25245 | 122.65001 | 20378 ft | 422 kts | 119° |
| 2026-04-28 13:00 | -18.26624 | 122.67745 | 20822 ft | 426 kts | 119° |
| 2026-04-28 13:01 | -18.28025 | 122.70510 | 21272 ft | 430 kts | 120° |
| 2026-04-28 13:01 | -18.29447 | 122.73293 | 21740 ft | 433 kts | 120° |
| 2026-04-28 13:01 | -18.30884 | 122.76095 | 22178 ft | 437 kts | 120° |
| 2026-04-28 13:01 | -18.32338 | 122.78922 | 22560 ft | 441 kts | 120° |
| 2026-04-28 13:02 | -18.33807 | 122.81777 | 22924 ft | 446 kts | 120° |
| 2026-04-28 13:02 | -18.35288 | 122.84655 | 23324 ft | 449 kts | 120° |
| 2026-04-28 13:02 | -18.36777 | 122.87547 | 23726 ft | 451 kts | 120° |
| 2026-04-28 13:02 | -18.38277 | 122.90466 | 24079 ft | 455 kts | 120° |
| 2026-04-28 13:03 | -18.39789 | 122.93409 | 24392 ft | 459 kts | 120° |
| 2026-04-28 13:03 | -18.41310 | 122.96373 | 24730 ft | 462 kts | 120° |
| 2026-04-28 13:03 | -18.42840 | 122.99356 | 25075 ft | 464 kts | 120° |
| 2026-04-28 13:03 | -18.44379 | 123.02358 | 25405 ft | 467 kts | 120° |
| 2026-04-28 13:04 | -18.45928 | 123.05381 | 25704 ft | 470 kts | 120° |
| 2026-04-28 13:04 | -18.47487 | 123.08424 | 25991 ft | 474 kts | 120° |
| 2026-04-28 13:04 | -18.49057 | 123.11490 | 26304 ft | 476 kts | 120° |
| 2026-04-28 13:04 | -18.50631 | 123.14566 | 26610 ft | 479 kts | 120° |
| 2026-04-28 13:05 | -18.52216 | 123.17664 | 26880 ft | 482 kts | 120° |
| 2026-04-28 13:05 | -18.53807 | 123.20777 | 27150 ft | 484 kts | 120° |
| 2026-04-28 13:05 | -18.55409 | 123.23913 | 27426 ft | 487 kts | 120° |
| 2026-04-28 13:05 | -18.57018 | 123.27064 | 27694 ft | 490 kts | 120° |
| 2026-04-28 13:06 | -18.58635 | 123.30232 | 27962 ft | 492 kts | 119° |
| 2026-04-28 13:06 | -18.60260 | 123.33417 | 28210 ft | 495 kts | 119° |
| 2026-04-28 13:06 | -18.61893 | 123.36620 | 28445 ft | 497 kts | 119° |
| 2026-04-28 13:06 | -18.63534 | 123.39841 | 28679 ft | 500 kts | 119° |
| 2026-04-28 13:07 | -18.65181 | 123.43074 | 28943 ft | 501 kts | 119° |
| 2026-04-28 13:07 | -18.66833 | 123.46317 | 29191 ft | 503 kts | 119° |
| 2026-04-28 13:07 | -18.68492 | 123.49579 | 29410 ft | 506 kts | 119° |
| 2026-04-28 13:07 | -18.70158 | 123.52855 | 29617 ft | 508 kts | 119° |
| 2026-04-28 13:08 | -18.71833 | 123.56150 | 29820 ft | 510 kts | 119° |
| 2026-04-28 13:08 | -18.73514 | 123.59460 | 30020 ft | 513 kts | 119° |
| 2026-04-28 13:08 | -18.75202 | 123.62784 | 30234 ft | 515 kts | 119° |
| 2026-04-28 13:08 | -18.76890 | 123.66112 | 30566 ft | 513 kts | 119° |
| 2026-04-28 13:09 | -18.78569 | 123.69423 | 30988 ft | 510 kts | 119° |
| 2026-04-28 13:09 | -18.80239 | 123.72720 | 31393 ft | 508 kts | 119° |
| 2026-04-28 13:09 | -18.81884 | 123.75966 | 31702 ft | 509 kts | 119° |
| 2026-04-28 13:09 | -18.83554 | 123.79264 | 31973 ft | 510 kts | 119° |
| 2026-04-28 13:10 | -18.85222 | 123.82558 | 32293 ft | 509 kts | 119° |
| 2026-04-28 13:10 | -18.86888 | 123.85852 | 32677 ft | 507 kts | 120° |
| 2026-04-28 13:10 | -18.88545 | 123.89130 | 33061 ft | 505 kts | 120° |
| 2026-04-28 13:10 | -18.90198 | 123.92404 | 33386 ft | 505 kts | 120° |
| 2026-04-28 13:11 | -18.91852 | 123.95680 | 33663 ft | 506 kts | 120° |
| 2026-04-28 13:11 | -18.93509 | 123.98964 | 33978 ft | 506 kts | 120° |
| 2026-04-28 13:11 | -18.95159 | 124.02237 | 34363 ft | 504 kts | 120° |
| 2026-04-28 13:11 | -18.96802 | 124.05497 | 34763 ft | 501 kts | 120° |
| 2026-04-28 13:12 | -18.98441 | 124.08749 | 35030 ft | 502 kts | 120° |
| 2026-04-28 13:12 | -19.00085 | 124.12011 | 35174 ft | 505 kts | 120° |
| 2026-04-28 13:12 | -19.01740 | 124.15296 | 35346 ft | 507 kts | 120° |
| 2026-04-28 13:12 | -19.03393 | 124.18582 | 35664 ft | 505 kts | 120° |
| 2026-04-28 13:13 | -19.05034 | 124.21849 | 36047 ft | 502 kts | 120° |
| 2026-04-28 13:13 | -19.06668 | 124.25102 | 36361 ft | 500 kts | 120° |
| 2026-04-28 13:13 | -19.08302 | 124.28353 | 36522 ft | 502 kts | 120° |
| 2026-04-28 13:13 | -19.09944 | 124.31622 | 36654 ft | 504 kts | 120° |
| 2026-04-28 13:14 | -19.11578 | 124.34879 | 37041 ft | 499 kts | 120° |
| 2026-04-28 13:14 | -19.14848 | 124.41405 | 36976 ft | 501 kts | 120° |
| 2026-04-28 13:15 | -19.18058 | 124.47820 | 36969 ft | 493 kts | 120° |
| 2026-04-28 13:15 | -19.21279 | 124.54259 | 36980 ft | 492 kts | 120° |
| 2026-04-28 13:16 | -19.24446 | 124.60598 | 36985 ft | 490 kts | 120° |
| 2026-04-28 13:16 | -19.27633 | 124.66983 | 36999 ft | 490 kts | 120° |
| 2026-04-28 13:17 | -19.30816 | 124.73368 | 36991 ft | 492 kts | 120° |
| 2026-04-28 13:17 | -19.34008 | 124.79781 | 37006 ft | 493 kts | 120° |
| 2026-04-28 13:18 | -19.37209 | 124.86214 | 37004 ft | 495 kts | 120° |
| 2026-04-28 13:18 | -19.40539 | 124.92606 | 36995 ft | 496 kts | 122° |
| 2026-04-28 13:19 | -19.43957 | 124.98953 | 37015 ft | 497 kts | 122° |
| 2026-04-28 13:19 | -19.47375 | 125.05330 | 36988 ft | 498 kts | 122° |
| 2026-04-28 13:20 | -19.50769 | 125.11718 | 37011 ft | 497 kts | 122° |
| 2026-04-28 13:20 | -19.54153 | 125.18111 | 36997 ft | 497 kts | 122° |
| 2026-04-28 13:21 | -19.57532 | 125.24502 | 37015 ft | 496 kts | 122° |
| 2026-04-28 13:21 | -19.60904 | 125.30884 | 37008 ft | 496 kts | 122° |
| 2026-04-28 13:22 | -19.64274 | 125.37267 | 37004 ft | 495 kts | 122° |
| 2026-04-28 13:22 | -19.67635 | 125.43638 | 37010 ft | 495 kts | 122° |
| 2026-04-28 13:23 | -19.70992 | 125.50010 | 37007 ft | 494 kts | 122° |
| 2026-04-28 13:23 | -19.74320 | 125.56332 | 37011 ft | 494 kts | 122° |
| 2026-04-28 13:24 | -19.77663 | 125.62691 | 37003 ft | 493 kts | 122° |
| 2026-04-28 13:24 | -19.81005 | 125.69056 | 37014 ft | 493 kts | 122° |
| 2026-04-28 13:25 | -19.84342 | 125.75419 | 37023 ft | 493 kts | 122° |
| 2026-04-28 13:25 | -19.87681 | 125.81791 | 37012 ft | 494 kts | 122° |
| 2026-04-28 13:26 | -19.91021 | 125.88174 | 37023 ft | 494 kts | 122° |
| 2026-04-28 13:26 | -19.94357 | 125.94555 | 37022 ft | 494 kts | 122° |
| 2026-04-28 13:27 | -19.97696 | 126.00950 | 37012 ft | 495 kts | 122° |
| 2026-04-28 13:27 | -20.01034 | 126.07351 | 37023 ft | 495 kts | 122° |
| 2026-04-28 13:28 | -20.04372 | 126.13757 | 37020 ft | 495 kts | 122° |
| 2026-04-28 13:28 | -20.07837 | 126.20067 | 36961 ft | 492 kts | 131° |
| 2026-04-28 13:28 | -20.10068 | 126.22791 | 37096 ft | 484 kts | 139° |
| 2026-04-28 13:29 | -20.12490 | 126.25274 | 37006 ft | 485 kts | 142° |
| 2026-04-28 13:29 | -20.17617 | 126.29904 | 37028 ft | 483 kts | 145° |
| 2026-04-28 13:30 | -20.22828 | 126.34430 | 37028 ft | 484 kts | 145° |
| 2026-04-28 13:30 | -20.28029 | 126.39004 | 37038 ft | 485 kts | 145° |
| 2026-04-28 13:31 | -20.35801 | 126.45941 | 37032 ft | 486 kts | 144° |
| 2026-04-28 13:31 | -20.40976 | 126.50581 | 37021 ft | 486 kts | 144° |
| 2026-04-28 13:32 | -20.46154 | 126.55225 | 37037 ft | 486 kts | 144° |
| 2026-04-28 13:32 | -20.51326 | 126.59864 | 37037 ft | 486 kts | 144° |
| 2026-04-28 13:33 | -20.56502 | 126.64510 | 37033 ft | 487 kts | 145° |
| 2026-04-28 13:33 | -20.61680 | 126.69162 | 37046 ft | 486 kts | 145° |
| 2026-04-28 13:34 | -20.66853 | 126.73814 | 37030 ft | 486 kts | 145° |
| 2026-04-28 13:34 | -20.72022 | 126.78468 | 37038 ft | 485 kts | 145° |
| 2026-04-28 13:35 | -20.77179 | 126.83114 | 37032 ft | 485 kts | 145° |
| 2026-04-28 13:35 | -20.81466 | 126.86979 | 37039 ft | 485 kts | 145° |
| 2026-04-28 13:36 | -20.86623 | 126.91633 | 37036 ft | 485 kts | 145° |
| 2026-04-28 13:36 | -20.91779 | 126.96289 | 37051 ft | 485 kts | 145° |
| 2026-04-28 13:37 | -20.96932 | 127.00949 | 37051 ft | 485 kts | 145° |
| 2026-04-28 13:37 | -21.02093 | 127.05619 | 37036 ft | 486 kts | 145° |
| 2026-04-28 13:38 | -21.07254 | 127.10293 | 37052 ft | 486 kts | 145° |
| 2026-04-28 13:38 | -21.12415 | 127.14973 | 37052 ft | 486 kts | 145° |
| 2026-04-28 13:39 | -21.17551 | 127.19634 | 37040 ft | 487 kts | 145° |
| 2026-04-28 13:39 | -21.22717 | 127.24327 | 37055 ft | 487 kts | 145° |
| 2026-04-28 13:40 | -21.27890 | 127.29031 | 37050 ft | 488 kts | 145° |
| 2026-04-28 13:40 | -21.33060 | 127.33736 | 37058 ft | 488 kts | 145° |
| 2026-04-28 13:41 | -21.38236 | 127.38451 | 37061 ft | 489 kts | 145° |
| 2026-04-28 13:41 | -21.43426 | 127.43183 | 37054 ft | 489 kts | 145° |
| 2026-04-28 13:42 | -21.48613 | 127.47918 | 37056 ft | 489 kts | 145° |
| 2026-04-28 13:42 | -21.53798 | 127.52656 | 37063 ft | 489 kts | 145° |
| 2026-04-28 13:43 | -21.58982 | 127.57398 | 37069 ft | 489 kts | 145° |
| 2026-04-28 13:43 | -21.64161 | 127.62139 | 37060 ft | 489 kts | 145° |
| 2026-04-28 13:44 | -21.69344 | 127.66889 | 37064 ft | 490 kts | 145° |
| 2026-04-28 13:44 | -21.74530 | 127.71645 | 37068 ft | 490 kts | 145° |
| 2026-04-28 13:45 | -21.79716 | 127.76406 | 37074 ft | 490 kts | 144° |
| 2026-04-28 13:45 | -21.84906 | 127.81177 | 37079 ft | 491 kts | 144° |
| 2026-04-28 13:46 | -21.90095 | 127.85950 | 37104 ft | 490 kts | 144° |
| 2026-04-28 13:46 | -21.95284 | 127.90728 | 37094 ft | 491 kts | 144° |
| 2026-04-28 13:47 | -22.00474 | 127.95512 | 37106 ft | 491 kts | 144° |
| 2026-04-28 13:47 | -22.05664 | 128.00301 | 37115 ft | 491 kts | 144° |
| 2026-04-28 13:48 | -22.10849 | 128.05091 | 37105 ft | 491 kts | 144° |
| 2026-04-28 13:48 | -22.16039 | 128.09889 | 37109 ft | 491 kts | 144° |
| 2026-04-28 13:49 | -22.21223 | 128.14688 | 37114 ft | 491 kts | 144° |
| 2026-04-28 13:49 | -22.26406 | 128.19489 | 37114 ft | 491 kts | 144° |
| 2026-04-28 13:50 | -22.31586 | 128.24293 | 37120 ft | 491 kts | 144° |
| 2026-04-28 13:50 | -22.36765 | 128.29103 | 37126 ft | 491 kts | 144° |
| 2026-04-28 13:51 | -22.41945 | 128.33914 | 37127 ft | 491 kts | 144° |
| 2026-04-28 13:51 | -22.47118 | 128.38726 | 37136 ft | 490 kts | 144° |
| 2026-04-28 13:52 | -22.52289 | 128.43543 | 37126 ft | 491 kts | 145° |
| 2026-04-28 13:52 | -22.57459 | 128.48362 | 37132 ft | 490 kts | 145° |
| 2026-04-28 13:53 | -22.62592 | 128.53151 | 37122 ft | 490 kts | 145° |
| 2026-04-28 13:53 | -22.67787 | 128.58003 | 37134 ft | 490 kts | 145° |
| 2026-04-28 13:54 | -22.72941 | 128.62823 | 37144 ft | 489 kts | 145° |
| 2026-04-28 13:54 | -22.78053 | 128.67607 | 37134 ft | 489 kts | 145° |
| 2026-04-28 13:55 | -22.83200 | 128.72430 | 37144 ft | 489 kts | 145° |
| 2026-04-28 13:55 | -22.88338 | 128.77250 | 37149 ft | 489 kts | 145° |
| 2026-04-28 13:56 | -22.93475 | 128.82074 | 37144 ft | 489 kts | 145° |
| 2026-04-28 13:56 | -22.98615 | 128.86905 | 37152 ft | 488 kts | 145° |
| 2026-04-28 13:57 | -23.03752 | 128.91737 | 37147 ft | 489 kts | 145° |
| 2026-04-28 13:57 | -23.08886 | 128.96573 | 37148 ft | 488 kts | 145° |
| 2026-04-28 13:58 | -23.14015 | 129.01411 | 37161 ft | 488 kts | 145° |
| 2026-04-28 13:58 | -23.19140 | 129.06252 | 37147 ft | 488 kts | 145° |
| 2026-04-28 13:59 | -23.24266 | 129.11097 | 37159 ft | 488 kts | 145° |
| 2026-04-28 13:59 | -23.29385 | 129.15942 | 37161 ft | 488 kts | 145° |
| 2026-04-28 14:00 | -23.34511 | 129.20798 | 37156 ft | 489 kts | 145° |
| 2026-04-28 14:00 | -23.39639 | 129.25660 | 37162 ft | 489 kts | 145° |
| 2026-04-28 14:01 | -23.44766 | 129.30527 | 37159 ft | 489 kts | 145° |
| 2026-04-28 14:01 | -23.49887 | 129.35394 | 37165 ft | 488 kts | 145° |
| 2026-04-28 14:02 | -23.55006 | 129.40263 | 37169 ft | 489 kts | 145° |
| 2026-04-28 14:02 | -23.60123 | 129.45137 | 37161 ft | 488 kts | 145° |
| 2026-04-28 14:03 | -23.65235 | 129.50011 | 37165 ft | 488 kts | 145° |
| 2026-04-28 14:03 | -23.70339 | 129.54882 | 37165 ft | 487 kts | 145° |
| 2026-04-28 14:04 | -23.75439 | 129.59755 | 37159 ft | 487 kts | 145° |
| 2026-04-28 14:04 | -23.80534 | 129.64629 | 37164 ft | 486 kts | 144° |
| 2026-04-28 14:05 | -23.85622 | 129.69502 | 37172 ft | 486 kts | 145° |
| 2026-04-28 14:05 | -23.90668 | 129.74338 | 37177 ft | 485 kts | 144° |
| 2026-04-28 14:06 | -23.95735 | 129.79201 | 37195 ft | 485 kts | 144° |
| 2026-04-28 14:06 | -24.00807 | 129.84073 | 37167 ft | 485 kts | 144° |
| 2026-04-28 14:07 | -24.05873 | 129.88946 | 37198 ft | 485 kts | 144° |
| 2026-04-28 14:07 | -24.10941 | 129.93823 | 37176 ft | 486 kts | 144° |
| 2026-04-28 14:08 | -24.16015 | 129.98714 | 37197 ft | 486 kts | 144° |
| 2026-04-28 14:08 | -24.21088 | 130.03609 | 37173 ft | 486 kts | 144° |
| 2026-04-28 14:09 | -24.26161 | 130.08510 | 37196 ft | 486 kts | 144° |
| 2026-04-28 14:09 | -24.31233 | 130.13414 | 37179 ft | 486 kts | 144° |
| 2026-04-28 14:10 | -24.36304 | 130.18325 | 37190 ft | 486 kts | 144° |
| 2026-04-28 14:10 | -24.41373 | 130.23239 | 37185 ft | 486 kts | 144° |
| 2026-04-28 14:11 | -24.46443 | 130.28157 | 37172 ft | 486 kts | 144° |
| 2026-04-28 14:11 | -24.51504 | 130.33074 | 37194 ft | 486 kts | 144° |
| 2026-04-28 14:12 | -24.56562 | 130.37992 | 37176 ft | 486 kts | 144° |
| 2026-04-28 14:12 | -24.61615 | 130.42911 | 37194 ft | 485 kts | 144° |
| 2026-04-28 14:13 | -24.66661 | 130.47829 | 37183 ft | 485 kts | 144° |
| 2026-04-28 14:13 | -24.71705 | 130.52750 | 37189 ft | 484 kts | 144° |
| 2026-04-28 14:14 | -24.76736 | 130.57665 | 37188 ft | 484 kts | 144° |
| 2026-04-28 14:14 | -24.81763 | 130.62581 | 37181 ft | 483 kts | 144° |
| 2026-04-28 14:15 | -24.86789 | 130.67502 | 37196 ft | 483 kts | 144° |
| 2026-04-28 14:15 | -24.91807 | 130.72421 | 37181 ft | 483 kts | 144° |
| 2026-04-28 14:16 | -24.96824 | 130.77343 | 37178 ft | 483 kts | 144° |
| 2026-04-28 14:16 | -25.01842 | 130.82273 | 37193 ft | 483 kts | 144° |
| 2026-04-28 14:17 | -25.06824 | 130.87173 | 37184 ft | 484 kts | 144° |
| 2026-04-28 14:17 | -25.11843 | 130.92117 | 37187 ft | 484 kts | 144° |
| 2026-04-28 14:18 | -25.16863 | 130.97066 | 37182 ft | 484 kts | 144° |
| 2026-04-28 14:18 | -25.21968 | 131.01890 | 37174 ft | 482 kts | 147° |
| 2026-04-28 14:19 | -25.27180 | 131.06543 | 37195 ft | 482 kts | 148° |
| 2026-04-28 14:19 | -25.32392 | 131.11198 | 37181 ft | 482 kts | 147° |
| 2026-04-28 14:20 | -25.37590 | 131.15897 | 37186 ft | 482 kts | 147° |
| 2026-04-28 14:20 | -25.42768 | 131.20614 | 37189 ft | 482 kts | 147° |
| 2026-04-28 14:21 | -25.47943 | 131.25333 | 37173 ft | 482 kts | 147° |
| 2026-04-28 14:21 | -25.53110 | 131.30049 | 37192 ft | 481 kts | 147° |
| 2026-04-28 14:22 | -25.57434 | 131.33997 | 37173 ft | 481 kts | 147° |
| 2026-04-28 14:22 | -25.62552 | 131.38677 | 37182 ft | 480 kts | 147° |
| 2026-04-28 14:23 | -25.67702 | 131.43390 | 37187 ft | 480 kts | 147° |
| 2026-04-28 14:23 | -25.72845 | 131.48104 | 37181 ft | 480 kts | 147° |
| 2026-04-28 14:24 | -25.77991 | 131.52824 | 37186 ft | 480 kts | 147° |
| 2026-04-28 14:24 | -25.83134 | 131.57547 | 37174 ft | 480 kts | 147° |
| 2026-04-28 14:25 | -25.88275 | 131.62274 | 37192 ft | 480 kts | 147° |
| 2026-04-28 14:25 | -25.93414 | 131.67003 | 37181 ft | 480 kts | 147° |
| 2026-04-28 14:26 | -25.98552 | 131.71739 | 37182 ft | 480 kts | 147° |
| 2026-04-28 14:26 | -26.03682 | 131.76473 | 37193 ft | 479 kts | 147° |
| 2026-04-28 14:27 | -26.08812 | 131.81213 | 37194 ft | 479 kts | 147° |
| 2026-04-28 14:27 | -26.13938 | 131.85953 | 37202 ft | 479 kts | 147° |
| 2026-04-28 14:28 | -26.19064 | 131.90698 | 37193 ft | 480 kts | 147° |
| 2026-04-28 14:28 | -26.24192 | 131.95453 | 37184 ft | 480 kts | 147° |
| 2026-04-28 14:29 | -26.29318 | 132.00212 | 37208 ft | 480 kts | 147° |
| 2026-04-28 14:29 | -26.34446 | 132.04976 | 37205 ft | 480 kts | 147° |
| 2026-04-28 14:30 | -26.39536 | 132.09713 | 37186 ft | 480 kts | 147° |
| 2026-04-28 14:30 | -26.44657 | 132.14485 | 37199 ft | 479 kts | 147° |
| 2026-04-28 14:31 | -26.49774 | 132.19255 | 37188 ft | 479 kts | 147° |
| 2026-04-28 14:31 | -26.54882 | 132.24025 | 37200 ft | 478 kts | 147° |
| 2026-04-28 14:32 | -26.59984 | 132.28795 | 37183 ft | 478 kts | 147° |
| 2026-04-28 14:32 | -26.65080 | 132.33565 | 37202 ft | 477 kts | 147° |
| 2026-04-28 14:33 | -26.70166 | 132.38332 | 37195 ft | 477 kts | 147° |
| 2026-04-28 14:33 | -26.75245 | 132.43097 | 37193 ft | 477 kts | 147° |
| 2026-04-28 14:34 | -26.82851 | 132.50245 | 37197 ft | 475 kts | 147° |
| 2026-04-28 14:35 | -26.87913 | 132.55010 | 37198 ft | 475 kts | 147° |
| 2026-04-28 14:35 | -26.92971 | 132.59775 | 37185 ft | 475 kts | 147° |
| 2026-04-28 14:36 | -26.98014 | 132.64539 | 37204 ft | 474 kts | 147° |
| 2026-04-28 14:36 | -27.03019 | 132.69279 | 37185 ft | 474 kts | 147° |
| 2026-04-28 14:37 | -27.08078 | 132.74076 | 37206 ft | 473 kts | 147° |
| 2026-04-28 14:37 | -27.13101 | 132.78843 | 37182 ft | 473 kts | 147° |
| 2026-04-28 14:38 | -27.18087 | 132.83580 | 37205 ft | 472 kts | 147° |
| 2026-04-28 14:38 | -27.23106 | 132.88356 | 37196 ft | 473 kts | 147° |
| 2026-04-28 14:39 | -27.28118 | 132.93130 | 37214 ft | 472 kts | 146° |
| 2026-04-28 14:39 | -27.33131 | 132.97911 | 37196 ft | 473 kts | 146° |
| 2026-04-28 14:40 | -27.38139 | 133.02695 | 37208 ft | 472 kts | 146° |
| 2026-04-28 14:40 | -27.43142 | 133.07478 | 37205 ft | 472 kts | 146° |
| 2026-04-28 14:41 | -27.48141 | 133.12264 | 37196 ft | 472 kts | 146° |
| 2026-04-28 14:41 | -27.53132 | 133.17047 | 37215 ft | 471 kts | 146° |
| 2026-04-28 14:42 | -27.58119 | 133.21834 | 37192 ft | 471 kts | 146° |
| 2026-04-28 14:42 | -27.63098 | 133.26618 | 37211 ft | 470 kts | 146° |
| 2026-04-28 14:43 | -27.68073 | 133.31405 | 37196 ft | 470 kts | 146° |
| 2026-04-28 14:43 | -27.73039 | 133.36190 | 37202 ft | 469 kts | 146° |
| 2026-04-28 14:44 | -27.77994 | 133.40970 | 37208 ft | 468 kts | 146° |
| 2026-04-28 14:44 | -27.82941 | 133.45745 | 37196 ft | 468 kts | 146° |
| 2026-04-28 14:45 | -27.87879 | 133.50519 | 37208 ft | 467 kts | 146° |
| 2026-04-28 14:45 | -27.92811 | 133.55293 | 37201 ft | 466 kts | 146° |
| 2026-04-28 14:46 | -27.97734 | 133.60065 | 37220 ft | 465 kts | 146° |
| 2026-04-28 14:46 | -28.02646 | 133.64833 | 37210 ft | 465 kts | 146° |
| 2026-04-28 14:47 | -28.07556 | 133.69604 | 37207 ft | 465 kts | 146° |
| 2026-04-28 14:47 | -28.12462 | 133.74377 | 37216 ft | 464 kts | 146° |
| 2026-04-28 14:48 | -28.17359 | 133.79147 | 37209 ft | 464 kts | 146° |
| 2026-04-28 14:48 | -28.22219 | 133.83887 | 37216 ft | 464 kts | 146° |
| 2026-04-28 14:49 | -28.27111 | 133.88665 | 37208 ft | 464 kts | 146° |
| 2026-04-28 14:49 | -28.32005 | 133.93448 | 37215 ft | 464 kts | 145° |
| 2026-04-28 14:50 | -28.36903 | 133.98244 | 37212 ft | 465 kts | 145° |
| 2026-04-28 14:50 | -28.41802 | 134.03047 | 37215 ft | 465 kts | 145° |
| 2026-04-28 14:51 | -28.46696 | 134.07852 | 37217 ft | 465 kts | 145° |
| 2026-04-28 14:51 | -28.51594 | 134.12664 | 37206 ft | 466 kts | 145° |
| 2026-04-28 14:52 | -28.56488 | 134.17480 | 37215 ft | 465 kts | 145° |
| 2026-04-28 14:52 | -28.61380 | 134.22301 | 37210 ft | 466 kts | 145° |
| 2026-04-28 14:53 | -28.66272 | 134.27127 | 37208 ft | 465 kts | 145° |
| 2026-04-28 14:53 | -28.71156 | 134.31950 | 37216 ft | 464 kts | 145° |
| 2026-04-28 14:54 | -28.76031 | 134.36773 | 37223 ft | 464 kts | 145° |
| 2026-04-28 14:54 | -28.80901 | 134.41598 | 37221 ft | 464 kts | 144° |
| 2026-04-28 14:55 | -28.85772 | 134.46428 | 37220 ft | 464 kts | 144° |
| 2026-04-28 14:55 | -28.90639 | 134.51262 | 37223 ft | 464 kts | 144° |
| 2026-04-28 14:56 | -28.95507 | 134.56103 | 37224 ft | 464 kts | 144° |
| 2026-04-28 14:56 | -29.00373 | 134.60949 | 37223 ft | 464 kts | 144° |
| 2026-04-28 14:57 | -29.05201 | 134.65766 | 37240 ft | 464 kts | 144° |
| 2026-04-28 14:57 | -29.10065 | 134.70628 | 37226 ft | 464 kts | 144° |
| 2026-04-28 14:58 | -29.14929 | 134.75496 | 37235 ft | 464 kts | 144° |
| 2026-04-28 14:58 | -29.19789 | 134.80367 | 37238 ft | 464 kts | 144° |
| 2026-04-28 14:59 | -29.24642 | 134.85236 | 37245 ft | 464 kts | 144° |
| 2026-04-28 14:59 | -29.29493 | 134.90111 | 37238 ft | 464 kts | 144° |
| 2026-04-28 15:00 | -29.34351 | 134.94998 | 37236 ft | 464 kts | 144° |
| 2026-04-28 15:00 | -29.39203 | 134.99885 | 37247 ft | 464 kts | 144° |
| 2026-04-28 15:01 | -29.44047 | 135.04771 | 37236 ft | 464 kts | 144° |
| 2026-04-28 15:01 | -29.48893 | 135.09666 | 37238 ft | 464 kts | 144° |
| 2026-04-28 15:02 | -29.53730 | 135.14557 | 37246 ft | 463 kts | 144° |
| 2026-04-28 15:02 | -29.58563 | 135.19450 | 37244 ft | 463 kts | 143° |
| 2026-04-28 15:03 | -29.63389 | 135.24345 | 37254 ft | 463 kts | 143° |
| 2026-04-28 15:03 | -29.68213 | 135.29243 | 37246 ft | 463 kts | 143° |
| 2026-04-28 15:04 | -29.73006 | 135.34115 | 37250 ft | 462 kts | 143° |
| 2026-04-28 15:04 | -29.77816 | 135.39013 | 37252 ft | 462 kts | 143° |
| 2026-04-28 15:05 | -29.82627 | 135.43917 | 37237 ft | 462 kts | 143° |
| 2026-04-28 15:05 | -29.87433 | 135.48823 | 37256 ft | 461 kts | 143° |
| 2026-04-28 15:06 | -29.92231 | 135.53729 | 37250 ft | 461 kts | 143° |
| 2026-04-28 15:06 | -29.97030 | 135.58640 | 37256 ft | 461 kts | 143° |
| 2026-04-28 15:07 | -30.01822 | 135.63552 | 37259 ft | 461 kts | 143° |
| 2026-04-28 15:07 | -30.06611 | 135.68468 | 37252 ft | 461 kts | 143° |
| 2026-04-28 15:08 | -30.11400 | 135.73390 | 37266 ft | 460 kts | 143° |
| 2026-04-28 15:08 | -30.16184 | 135.78314 | 37254 ft | 461 kts | 143° |
| 2026-04-28 15:09 | -30.20966 | 135.83241 | 37261 ft | 461 kts | 143° |
| 2026-04-28 15:09 | -30.25747 | 135.88174 | 37258 ft | 461 kts | 143° |
| 2026-04-28 15:10 | -30.30528 | 135.93114 | 37256 ft | 461 kts | 143° |
| 2026-04-28 15:10 | -30.35306 | 135.98058 | 37260 ft | 461 kts | 143° |
| 2026-04-28 15:11 | -30.39274 | 136.02169 | 37256 ft | 461 kts | 143° |
| 2026-04-28 15:11 | -30.44825 | 136.07929 | 37261 ft | 461 kts | 143° |
| 2026-04-28 15:12 | -30.48823 | 136.12082 | 37253 ft | 461 kts | 143° |
| 2026-04-28 15:12 | -30.53603 | 136.17052 | 37267 ft | 461 kts | 143° |
| 2026-04-28 15:13 | -30.58381 | 136.22028 | 37267 ft | 462 kts | 143° |
| 2026-04-28 15:13 | -30.63168 | 136.27021 | 37269 ft | 463 kts | 143° |
| 2026-04-28 15:14 | -30.67933 | 136.31998 | 37271 ft | 464 kts | 143° |
| 2026-04-28 15:14 | -30.72734 | 136.37019 | 37265 ft | 465 kts | 142° |
| 2026-04-28 15:15 | -30.77536 | 136.42050 | 37267 ft | 465 kts | 142° |
| 2026-04-28 15:15 | -30.82341 | 136.47091 | 37271 ft | 465 kts | 142° |
| 2026-04-28 15:16 | -30.87145 | 136.52138 | 37265 ft | 465 kts | 142° |
| 2026-04-28 15:16 | -30.91947 | 136.57189 | 37264 ft | 465 kts | 142° |
| 2026-04-28 15:17 | -30.96741 | 136.62238 | 37273 ft | 465 kts | 142° |
| 2026-04-28 15:17 | -31.01533 | 136.67293 | 37263 ft | 465 kts | 142° |
| 2026-04-28 15:18 | -31.06326 | 136.72359 | 37268 ft | 465 kts | 142° |
| 2026-04-28 15:18 | -31.11110 | 136.77417 | 37267 ft | 464 kts | 143° |
| 2026-04-28 15:19 | -31.16229 | 136.81905 | 37236 ft | 455 kts | 159° |
| 2026-04-28 15:19 | -31.19158 | 136.83127 | 37263 ft | 442 kts | 172° |
| 2026-04-28 15:19 | -31.22139 | 136.83892 | 37381 ft | 438 kts | 174° |
| 2026-04-28 15:20 | -31.28076 | 136.85606 | 37269 ft | 446 kts | 168° |
| 2026-04-28 15:20 | -31.33987 | 136.87856 | 37264 ft | 448 kts | 167° |
| 2026-04-28 15:21 | -31.39897 | 136.90150 | 37267 ft | 448 kts | 167° |
| 2026-04-28 15:21 | -31.45834 | 136.92383 | 37277 ft | 448 kts | 168° |
| 2026-04-28 15:22 | -31.51776 | 136.94578 | 37260 ft | 448 kts | 168° |
| 2026-04-28 15:22 | -31.57727 | 136.96771 | 37277 ft | 448 kts | 168° |
| 2026-04-28 15:23 | -31.63675 | 136.98967 | 37263 ft | 449 kts | 168° |
| 2026-04-28 15:23 | -31.69631 | 137.01173 | 37264 ft | 448 kts | 168° |
| 2026-04-28 15:24 | -31.75578 | 137.03377 | 37260 ft | 448 kts | 168° |
| 2026-04-28 15:24 | -31.81528 | 137.05587 | 37253 ft | 448 kts | 168° |
| 2026-04-28 15:25 | -31.87430 | 137.07781 | 37268 ft | 447 kts | 168° |
| 2026-04-28 15:25 | -31.93361 | 137.09990 | 37255 ft | 447 kts | 168° |
| 2026-04-28 15:26 | -31.99334 | 137.12217 | 37258 ft | 447 kts | 168° |
| 2026-04-28 15:26 | -32.05217 | 137.14412 | 37257 ft | 447 kts | 168° |
| 2026-04-28 15:27 | -32.11139 | 137.16625 | 37253 ft | 446 kts | 168° |
| 2026-04-28 15:27 | -32.17058 | 137.18841 | 37246 ft | 446 kts | 168° |
| 2026-04-28 15:28 | -32.22975 | 137.21060 | 37253 ft | 446 kts | 168° |
| 2026-04-28 15:28 | -32.28890 | 137.23280 | 37251 ft | 446 kts | 168° |
| 2026-04-28 15:29 | -32.34810 | 137.25505 | 37241 ft | 446 kts | 168° |
| 2026-04-28 15:29 | -32.40724 | 137.27731 | 37255 ft | 446 kts | 168° |
| 2026-04-28 15:30 | -32.46641 | 137.29961 | 37255 ft | 446 kts | 168° |
| 2026-04-28 15:30 | -32.52555 | 137.32191 | 37228 ft | 446 kts | 168° |
| 2026-04-28 15:31 | -32.58473 | 137.34424 | 37248 ft | 446 kts | 168° |
| 2026-04-28 15:31 | -32.64384 | 137.36658 | 37233 ft | 446 kts | 168° |
| 2026-04-28 15:32 | -32.70302 | 137.38896 | 37233 ft | 446 kts | 168° |
| 2026-04-28 15:32 | -32.76214 | 137.41137 | 37245 ft | 446 kts | 168° |
| 2026-04-28 15:33 | -32.82125 | 137.43381 | 37236 ft | 446 kts | 168° |
| 2026-04-28 15:33 | -32.88037 | 137.45628 | 37241 ft | 446 kts | 168° |
| 2026-04-28 15:34 | -32.93952 | 137.47879 | 37233 ft | 446 kts | 167° |
| 2026-04-28 15:34 | -32.99862 | 137.50132 | 37247 ft | 446 kts | 167° |
| 2026-04-28 15:35 | -33.05780 | 137.52391 | 37237 ft | 447 kts | 167° |
| 2026-04-28 15:35 | -33.14684 | 137.55730 | 37246 ft | 447 kts | 168° |
| 2026-04-28 15:36 | -33.20617 | 137.57944 | 37239 ft | 447 kts | 168° |
| 2026-04-28 15:36 | -33.26553 | 137.60167 | 37241 ft | 447 kts | 168° |
| 2026-04-28 15:37 | -33.32446 | 137.62381 | 37241 ft | 447 kts | 168° |
| 2026-04-28 15:37 | -33.37435 | 137.64256 | 36692 ft | 454 kts | 167° |
| 2026-04-28 15:38 | -33.41423 | 137.65756 | 35941 ft | 450 kts | 167° |
| 2026-04-28 15:38 | -33.44411 | 137.66884 | 35003 ft | 454 kts | 167° |
| 2026-04-28 15:38 | -33.47429 | 137.68022 | 34454 ft | 450 kts | 167° |
| 2026-04-28 15:38 | -33.50425 | 137.69155 | 33388 ft | 457 kts | 167° |
| 2026-04-28 15:39 | -33.53441 | 137.70294 | 32972 ft | 449 kts | 167° |
| 2026-04-28 15:39 | -33.56418 | 137.71421 | 32184 ft | 450 kts | 167° |
| 2026-04-28 15:39 | -33.59366 | 137.72537 | 31803 ft | 441 kts | 166° |
| 2026-04-28 15:39 | -33.62289 | 137.73644 | 31335 ft | 435 kts | 166° |
| 2026-04-28 15:40 | -33.65149 | 137.74732 | 30725 ft | 433 kts | 166° |
| 2026-04-28 15:40 | -33.68001 | 137.75815 | 30371 ft | 425 kts | 166° |
| 2026-04-28 15:40 | -33.70832 | 137.76890 | 29672 ft | 427 kts | 166° |
| 2026-04-28 15:40 | -33.73614 | 137.77948 | 29190 ft | 425 kts | 166° |
| 2026-04-28 15:41 | -33.76474 | 137.79035 | 28581 ft | 424 kts | 166° |
| 2026-04-28 15:41 | -33.79238 | 137.80088 | 28023 ft | 420 kts | 166° |
| 2026-04-28 15:41 | -33.82011 | 137.81146 | 27442 ft | 417 kts | 165° |
| 2026-04-28 15:41 | -33.84767 | 137.82198 | 26887 ft | 413 kts | 165° |
| 2026-04-28 15:42 | -33.87496 | 137.83241 | 26320 ft | 410 kts | 165° |
| 2026-04-28 15:42 | -33.90200 | 137.84274 | 25758 ft | 406 kts | 165° |
| 2026-04-28 15:42 | -33.92885 | 137.85300 | 25196 ft | 403 kts | 165° |
| 2026-04-28 15:42 | -33.95577 | 137.86330 | 24628 ft | 399 kts | 165° |
| 2026-04-28 15:43 | -33.98215 | 137.87339 | 24080 ft | 396 kts | 165° |
| 2026-04-28 15:43 | -34.00832 | 137.88341 | 23530 ft | 393 kts | 165° |
| 2026-04-28 15:43 | -34.03415 | 137.89329 | 23116 ft | 386 kts | 165° |
| 2026-04-28 15:43 | -34.05972 | 137.90305 | 22531 ft | 385 kts | 165° |
| 2026-04-28 15:44 | -34.08484 | 137.91263 | 22022 ft | 382 kts | 165° |
| 2026-04-28 15:44 | -34.11011 | 137.92229 | 21472 ft | 380 kts | 164° |
| 2026-04-28 15:44 | -34.13523 | 137.93189 | 20937 ft | 378 kts | 164° |
| 2026-04-28 15:44 | -34.16019 | 137.94145 | 20382 ft | 375 kts | 164° |
| 2026-04-28 15:45 | -34.18503 | 137.95097 | 19847 ft | 373 kts | 164° |
| 2026-04-28 15:45 | -34.20974 | 137.96045 | 19305 ft | 371 kts | 164° |
| 2026-04-28 15:45 | -34.23428 | 137.96986 | 18765 ft | 369 kts | 164° |
| 2026-04-28 15:45 | -34.25870 | 137.97923 | 18225 ft | 367 kts | 163° |
| 2026-04-28 15:46 | -34.28304 | 137.98857 | 17685 ft | 366 kts | 163° |
| 2026-04-28 15:46 | -34.30724 | 137.99788 | 17146 ft | 364 kts | 163° |
| 2026-04-28 15:46 | -34.33126 | 138.00714 | 16598 ft | 361 kts | 163° |
| 2026-04-28 15:46 | -34.35525 | 138.01637 | 16066 ft | 361 kts | 163° |
| 2026-04-28 15:47 | -34.37907 | 138.02553 | 15531 ft | 359 kts | 163° |
| 2026-04-28 15:47 | -34.40280 | 138.03467 | 14999 ft | 356 kts | 162° |
| 2026-04-28 15:47 | -34.42480 | 138.04795 | 14411 ft | 355 kts | 141° |
| 2026-04-28 15:47 | -34.44309 | 138.06730 | 14023 ft | 346 kts | 138° |
| 2026-04-28 15:48 | -34.46178 | 138.08641 | 13289 ft | 351 kts | 142° |
| 2026-04-28 15:48 | -34.48133 | 138.10387 | 12666 ft | 350 kts | 145° |
| 2026-04-28 15:48 | -34.50121 | 138.12049 | 12192 ft | 343 kts | 145° |
| 2026-04-28 15:48 | -34.52054 | 138.13676 | 11664 ft | 333 kts | 144° |
| 2026-04-28 15:49 | -34.53914 | 138.15283 | 11175 ft | 325 kts | 143° |
| 2026-04-28 15:49 | -34.55720 | 138.16880 | 10667 ft | 318 kts | 143° |
| 2026-04-28 15:49 | -34.57487 | 138.18465 | 10347 ft | 312 kts | 143° |
| 2026-04-28 15:49 | -34.59200 | 138.20014 | 10264 ft | 304 kts | 142° |
| 2026-04-28 15:50 | -34.60865 | 138.21525 | 10095 ft | 291 kts | 142° |
| 2026-04-28 15:50 | -34.62446 | 138.22961 | 9925 ft | 277 kts | 142° |
| 2026-04-28 15:50 | -34.63989 | 138.24365 | 9545 ft | 278 kts | 142° |
| 2026-04-28 15:50 | -34.65494 | 138.25734 | 9251 ft | 280 kts | 142° |
| 2026-04-28 15:51 | -34.67047 | 138.27147 | 9083 ft | 275 kts | 142° |
| 2026-04-28 15:51 | -34.68541 | 138.28507 | 8854 ft | 266 kts | 142° |
| 2026-04-28 15:51 | -34.70006 | 138.29844 | 8506 ft | 267 kts | 142° |
| 2026-04-28 15:51 | -34.71510 | 138.31217 | 8162 ft | 269 kts | 142° |
| 2026-04-28 15:52 | -34.73003 | 138.32580 | 7751 ft | 266 kts | 142° |
| 2026-04-28 15:52 | -34.74347 | 138.34036 | 7417 ft | 260 kts | 131° |
| 2026-04-28 15:52 | -34.75515 | 138.35729 | 7123 ft | 258 kts | 126° |
| 2026-04-28 15:52 | -34.76592 | 138.37453 | 6820 ft | 261 kts | 126° |
| 2026-04-28 15:53 | -34.77690 | 138.39205 | 6481 ft | 257 kts | 126° |
| 2026-04-28 15:53 | -34.78778 | 138.40897 | 6171 ft | 252 kts | 127° |
| 2026-04-28 15:53 | -34.79867 | 138.42557 | 6013 ft | 249 kts | 127° |
| 2026-04-28 15:53 | -34.80948 | 138.44185 | 5928 ft | 247 kts | 127° |
| 2026-04-28 15:54 | -34.82013 | 138.45777 | 5779 ft | 236 kts | 127° |
| 2026-04-28 15:54 | -34.83019 | 138.47280 | 5661 ft | 221 kts | 127° |
| 2026-04-28 15:54 | -34.83977 | 138.48709 | 5531 ft | 218 kts | 127° |
| 2026-04-28 15:54 | -34.84729 | 138.50309 | 5240 ft | 221 kts | 96° |
| 2026-04-28 15:55 | -34.84693 | 138.52123 | 5121 ft | 210 kts | 80° |
| 2026-04-28 15:55 | -34.84501 | 138.53871 | 4849 ft | 206 kts | 81° |
| 2026-04-28 15:55 | -34.84367 | 138.55572 | 4618 ft | 198 kts | 83° |
| 2026-04-28 15:55 | -34.84253 | 138.57172 | 4388 ft | 191 kts | 83° |
| 2026-04-28 15:56 | -34.84134 | 138.58737 | 4148 ft | 184 kts | 83° |
| 2026-04-28 15:56 | -34.84017 | 138.60234 | 3920 ft | 171 kts | 83° |
| 2026-04-28 15:56 | -34.83906 | 138.61620 | 3743 ft | 159 kts | 83° |
| 2026-04-28 15:56 | -34.83801 | 138.62940 | 3548 ft | 156 kts | 84° |
| 2026-04-28 15:57 | -34.84022 | 138.64218 | 3369 ft | 159 kts | 121° |
| 2026-04-28 15:57 | -34.84815 | 138.65115 | 3398 ft | 154 kts | 155° |
| 2026-04-28 15:57 | -34.85835 | 138.65251 | 3198 ft | 148 kts | 194° |
| 2026-04-28 15:57 | -34.86655 | 138.64557 | 2997 ft | 143 kts | 224° |
| 2026-04-28 15:58 | -34.87370 | 138.63705 | 2765 ft | 144 kts | 223° |
| 2026-04-28 15:58 | -34.88088 | 138.62869 | 2523 ft | 141 kts | 224° |
| 2026-04-28 15:58 | -34.88750 | 138.62000 | 2309 ft | 139 kts | 227° |
| 2026-04-28 15:58 | -34.89376 | 138.61110 | 2077 ft | 137 kts | 229° |
| 2026-04-28 15:59 | -34.89989 | 138.60223 | 1850 ft | 137 kts | 229° |
| 2026-04-28 15:59 | -34.90394 | 138.59635 | 1693 ft | 136 kts | 229° |
| 2026-04-28 15:59 | -34.91192 | 138.58477 | 1364 ft | 130 kts | 229° |
| 2026-04-28 15:59 | -34.91766 | 138.57644 | 1132 ft | 128 kts | 229° |
| 2026-04-28 16:00 | -34.92338 | 138.56816 | 915 ft | 129 kts | 231° |
| 2026-04-28 16:00 | -34.92912 | 138.55982 | 688 ft | 128 kts | 231° |
| 2026-04-28 16:00 | -34.93483 | 138.55154 | 465 ft | 127 kts | 230° |
| 2026-04-28 16:00 | -34.93859 | 138.54609 | 317 ft | 127 kts | 230° |
| 2026-04-28 16:01 | -34.94427 | 138.53785 | 254 ft | 141 kts | 230° |
| 2026-04-28 16:01 | -34.95105 | 138.52803 | 263 ft | 153 kts | 230° |
| 2026-04-28 16:01 | -34.95784 | 138.51819 | 442 ft | 149 kts | 230° |
| 2026-04-28 16:01 | -34.96477 | 138.50828 | 346 ft | 161 kts | 229° |
| 2026-04-28 16:02 | -34.97222 | 138.49907 | 114 ft | 144 kts | 222° |
| 2026-04-28 16:02 | -34.97900 | 138.49121 | 265 ft | 133 kts | 234° |
| 2026-04-28 16:02 | -34.98318 | 138.48010 | 597 ft | 157 kts | 256° |
| 2026-04-28 16:02 | -34.98455 | 138.46677 | 681 ft | 158 kts | 267° |
| 2026-04-28 16:03 | -34.98583 | 138.45356 | 519 ft | 156 kts | 253° |
| 2026-04-28 16:03 | -34.98658 | 138.44055 | 293 ft | 161 kts | 283° |
| 2026-04-28 16:03 | -34.98254 | 138.42692 | 125 ft | 170 kts | 297° |
| 2026-04-28 16:03 | -34.97641 | 138.41455 | 406 ft | 173 kts | 303° |
| 2026-04-28 16:04 | -34.97027 | 138.40240 | 1117 ft | 173 kts | 299° |
| 2026-04-28 16:04 | -34.96233 | 138.39130 | 1712 ft | 179 kts | 335° |
| 2026-04-28 16:04 | -34.95012 | 138.39100 | 2487 ft | 184 kts | 25° |
| 2026-04-28 16:04 | -34.94019 | 138.40153 | 3077 ft | 203 kts | 49° |
| 2026-04-28 16:05 | -34.93088 | 138.41492 | 3149 ft | 207 kts | 49° |
| 2026-04-28 16:05 | -34.92179 | 138.42810 | 3177 ft | 208 kts | 49° |
| 2026-04-28 16:05 | -34.91274 | 138.44117 | 3186 ft | 210 kts | 49° |
| 2026-04-28 16:05 | -34.90249 | 138.45480 | 3189 ft | 219 kts | 39° |
| 2026-04-28 16:06 | -34.88990 | 138.46613 | 3208 ft | 229 kts | 36° |
| 2026-04-28 16:06 | -34.87688 | 138.47756 | 3214 ft | 231 kts | 37° |
| 2026-04-28 16:06 | -34.86422 | 138.48939 | 3201 ft | 229 kts | 38° |
| 2026-04-28 16:06 | -34.85165 | 138.50149 | 3208 ft | 238 kts | 39° |
| 2026-04-28 16:07 | -34.83821 | 138.51453 | 3215 ft | 253 kts | 39° |
| 2026-04-28 16:07 | -34.82429 | 138.52806 | 3215 ft | 257 kts | 39° |
| 2026-04-28 16:07 | -34.79653 | 138.55509 | 3201 ft | 254 kts | 39° |
| 2026-04-28 16:08 | -34.78275 | 138.56851 | 3201 ft | 253 kts | 39° |
| 2026-04-28 16:08 | -34.76903 | 138.58185 | 3202 ft | 252 kts | 39° |
| 2026-04-28 16:08 | -34.75531 | 138.59518 | 3200 ft | 252 kts | 39° |
| 2026-04-28 16:09 | -34.72789 | 138.62185 | 3205 ft | 253 kts | 39° |
| 2026-04-28 16:09 | -34.71414 | 138.63522 | 3202 ft | 253 kts | 39° |
| 2026-04-28 16:09 | -34.70036 | 138.64862 | 3200 ft | 254 kts | 39° |
| 2026-04-28 16:10 | -34.68094 | 138.68187 | 3191 ft | 241 kts | 90° |
| 2026-04-28 16:10 | -34.68581 | 138.70029 | 3190 ft | 228 kts | 128° |
| 2026-04-28 16:10 | -34.70890 | 138.72492 | 3203 ft | 220 kts | 139° |
| 2026-04-28 16:11 | -34.73353 | 138.75049 | 3207 ft | 244 kts | 138° |
| 2026-04-28 16:11 | -34.75945 | 138.77705 | 3199 ft | 243 kts | 146° |
| 2026-04-28 16:12 | -34.79117 | 138.77705 | 3201 ft | 244 kts | 219° |
| 2026-04-28 16:12 | -34.80094 | 138.76057 | 3236 ft | 242 kts | 246° |
| 2026-04-28 16:13 | -34.81657 | 138.72501 | 3207 ft | 227 kts | 236° |
| 2026-04-28 16:13 | -34.82577 | 138.70998 | 3180 ft | 216 kts | 231° |
| 2026-04-28 16:13 | -34.84504 | 138.68182 | 2913 ft | 215 kts | 230° |
| 2026-04-28 16:14 | -34.86311 | 138.65561 | 2384 ft | 185 kts | 229° |
| 2026-04-28 16:14 | -34.87822 | 138.63366 | 1955 ft | 150 kts | 229° |
| 2026-04-28 16:15 | -34.89080 | 138.61542 | 1577 ft | 135 kts | 229° |
| 2026-04-28 16:15 | -34.89690 | 138.60656 | 1378 ft | 137 kts | 229° |
| 2026-04-28 16:15 | -34.90296 | 138.59778 | 1203 ft | 135 kts | 231° |
| 2026-04-28 16:16 | -34.91488 | 138.58047 | 845 ft | 134 kts | 231° |
| 2026-04-28 16:16 | -34.92087 | 138.57179 | 671 ft | 133 kts | 231° |
| 2026-04-28 16:17 | -34.93278 | 138.55451 | 319 ft | 133 kts | 230° |
| 2026-04-28 16:17 | -34.93873 | 138.54588 | 136 ft | 133 kts | 230° |
| 2026-04-28 16:17 | -34.94457 | 138.53749 | 26 ft | 120 kts | 229° |
| 2026-04-28 16:17 | -34.94773 | 138.53295 | 23 ft | 14 kts | 229° |
| 2026-04-28 16:18 | -34.94843 | 138.53197 | 23 ft | 15 kts | 229° |
| 2026-04-28 16:18 | -34.94911 | 138.53101 | 23 ft | 15 kts | 229° |
| 2026-04-28 16:18 | -34.94940 | 138.52999 | 20 ft | 14 kts | 313° |
| 2026-04-28 16:18 | -34.94853 | 138.52996 | 21 ft | 13 kts | 25° |
| 2026-04-28 16:19 | -34.94769 | 138.53041 | 22 ft | 13 kts | 21° |
| 2026-04-28 16:19 | -34.94686 | 138.53077 | 22 ft | 13 kts | 19° |
| 2026-04-28 16:19 | -34.94604 | 138.53113 | 23 ft | 12 kts | 21° |
| 2026-04-28 16:19 | -34.94525 | 138.53149 | 23 ft | 12 kts | 26° |
| 2026-04-28 16:20 | -34.94516 | 138.53236 | 22 ft | 12 kts | 114° |
| 2026-04-28 16:20 | -34.94511 | 138.53329 | 21 ft | 11 kts | 58° |
| 2026-04-28 16:20 | -34.94464 | 138.53405 | 22 ft | 11 kts | 51° |
| 2026-04-28 16:20 | -34.94414 | 138.53475 | 23 ft | 11 kts | 49° |
| 2026-04-28 16:21 | -34.94367 | 138.53544 | 21 ft | 10 kts | 49° |
| 2026-04-28 16:21 | -34.94321 | 138.53611 | 23 ft | 10 kts | 50° |
| 2026-04-28 16:21 | -34.94271 | 138.53667 | 25 ft | 10 kts | 27° |
| 2026-04-28 16:21 | -34.94210 | 138.53641 | 23 ft | 10 kts | 344° |
| 2026-04-28 16:22 | -34.94156 | 138.53680 | 26 ft | 9 kts | 47° |
| 2026-04-28 16:22 | -34.94115 | 138.53741 | 26 ft | 9 kts | 51° |
| 2026-04-28 16:22 | -34.94094 | 138.53759 | 25 ft | 1 kts | 3° |
| 2026-04-28 16:22 | -34.94075 | 138.53746 | 26 ft | 6 kts | 317° |
| 2026-04-28 16:23 | -34.94042 | 138.53709 | 26 ft | 6 kts | 320° |
| 2026-04-28 16:23 | -34.94029 | 138.53696 | 26 ft | 0 kts | 320° |